• Join FlightAware (Why Join?)
  • Login
  • US Flag 
06:42PM EST


 

Airport Tracker/Info


-or-


 

Live Flight TrackerFlight Track Log ✈ UAL3776 ✈ 17-Apr-2013 ✈ KMIA - KIAD

Flight Track Log - Related Links

Times and Time Zones

All times are in EDT time to prevent confusion due to time zone crossing. See the UAL3776 flight status page for this flight to view local times or setup timezone preferences in your user account.

Time Position Orientation Groundspeed Altitude Reporting Facility
EDT Latitude Longitude Course Direction KTS MPH feet Rate Location/Type
11:40AM 25.7981 -80.2744 82° East 145 167 800  Level Miami Center
11:41AM 25.8058 -80.2100 82° East 202 232 3,400 2,340 Climbing Miami Center
11:42AM 25.8322 -80.1578 61° Northeast 216 249 6,100 2,100 Climbing Miami Center
11:43AM 25.8900 -80.1869 336° Northwest 275 316 7,700 1,860 Climbing Miami Center
11:44AM 25.9661 -80.2353 330° Northwest 282 325 10,100 1,860 Climbing Miami Center
11:45AM 26.0400 -80.2883 327° Northwest 339 390 11,600 1,740 Climbing Miami Center
11:46AM 26.1222 -80.3486 327° Northwest 344 396 13,600 1,980 Climbing Miami Center
11:47AM 26.2022 -80.4064 327° Northwest 344 396 15,600 1,860 Climbing Miami Center
11:48AM 26.2908 -80.4600 332° Northwest 344 396 17,400 1,740 Climbing Miami Center
11:49AM 26.3836 -80.5047 337° Northwest 350 403 19,100 1,680 Climbing Miami Center
11:50AM 26.4767 -80.5492 337° Northwest 362 417 20,800 1,680 Climbing Miami Center
11:51AM 26.5736 -80.5964 336° Northwest 367 422 22,500 1,500 Climbing Miami Center
11:52AM 26.6725 -80.6414 338° Northwest 375 432 23,900 1,260 Climbing Miami Center
11:53AM 26.7717 -80.6864 338° Northwest 375 432 25,100 1,200 Climbing Miami Center
11:54AM 26.8772 -80.7247 342° North 387 445 26,300 1,140 Climbing Miami Center
11:55AM 26.9744 -80.7583 343° North 400 460 27,400 1,200 Climbing Miami Center
11:56AM 27.0864 -80.7831 349° North 411 473 28,700 1,200 Climbing Miami Center
11:57AM 27.2089 -80.8106 349° North 411 473 29,900 1,020 Climbing Miami Center
11:58AM 27.3250 -80.8356 349° North 411 473 30,800 900 Climbing Miami Center
11:59AM 27.4289 -80.8578 349° North 417 480 31,700 1,200 Climbing Miami Center
12:00PM 27.5389 -80.8806 350° North 418 481 33,200 1,500 Climbing Miami Center
12:01PM 27.6447 -80.9053 348° North 403 464 34,700 1,020 Climbing Miami Center
12:02PM 27.7506 -80.9278 349° North 388 447 35,300 660 Climbing Miami Center
12:03PM 27.8583 -80.9506 349° North 388 447 36,100 660 Climbing Miami Center
12:04PM 27.9703 -80.9756 349° North 393 452 36,700 420 Climbing Miami Center
12:05PM 28.0783 -80.9983 349° North 393 452 37,000 120 Climbing Miami Center
12:06PM 28.1861 -81.0236 348° North 393 452 37,000  Level Miami Center
12:07PM 28.3664 -81.0619 349° North 395 455 37,000  Level Jacksonville Center
12:08PM 28.4817 -81.0883 349° North 411 473 37,000  Level Jacksonville Center
12:09PM 28.5967 -81.1122 350° North 411 473 37,000  Level Jacksonville Center
12:10PM 28.7119 -81.1386 349° North 416 479 37,000  Level Jacksonville Center
12:11PM 28.8269 -81.1625 350° North 416 479 37,000  Level Jacksonville Center
12:12PM 28.9547 -81.1983 346° North 416 479 37,000  Level Jacksonville Center
12:13PM 29.0658 -81.2250 348° North 411 473 37,000  Level Jacksonville Center
12:14PM 29.1828 -81.2492 350° North 412 474 37,000  Level Jacksonville Center
12:15PM 29.2958 -81.2711 350° North 412 474 37,000  Level Jacksonville Center
12:16PM 29.4150 -81.2808 356° North 412 474 37,000  Level Jacksonville Center
12:17PM 29.5319 -81.2908 356° North 417 480 37,000  Level Jacksonville Center
12:18PM 29.6492 -81.3011 356° North 423 487 37,000  Level Jacksonville Center
12:19PM 29.7681 -81.3111 356° North 423 487 37,000  Level Jacksonville Center
12:20PM 29.8872 -81.3211 356° North 423 487 37,000  Level Jacksonville Center
12:21PM 30.0064 -81.3311 356° North 423 487 37,000  Level Jacksonville Center
12:22PM 30.1275 -81.3411 356° North 423 487 37,000  Level Jacksonville Center
12:23PM 30.2489 -81.3489 357° North 423 487 37,000  Level Jacksonville Center
12:24PM 30.3700 -81.3589 356° North 428 493 37,000  Level Jacksonville Center
12:25PM 30.4914 -81.3714 355° North 428 493 37,000  Level Jacksonville Center
12:26PM 30.6125 -81.3817 356° North 428 493 37,000  Level Jacksonville Center
12:27PM 30.7336 -81.3942 355° North 428 493 37,000  Level Jacksonville Center
12:28PM 30.8592 -81.4019 357° North 434 499 37,000  Level Jacksonville Center
12:29PM 30.9825 -81.4169 354° North 440 506 37,000  Level Jacksonville Center
12:30PM 31.1058 -81.4247 357° North 440 506 37,000  Level Jacksonville Center
12:31PM 31.2311 -81.4347 356° North 444 511 37,000  Level Jacksonville Center
12:32PM 31.3561 -81.4133 North 448 516 37,000  Level Jacksonville Center
12:33PM 31.4769 -81.3750 15° North 448 516 37,000  Level Jacksonville Center
12:34PM 31.5931 -81.3122 25° Northeast 461 531 37,000  Level Jacksonville Center
12:35PM 31.6967 -81.2469 28° Northeast 461 531 37,000  Level Jacksonville Center
12:36PM 31.8250 -81.1689 27° Northeast 461 531 37,000  Level Jacksonville Center
12:37PM 31.9431 -81.0981 27° Northeast 468 539 37,000  Level Jacksonville Center
12:38PM 32.0567 -81.0247 29° Northeast 468 539 37,000  Level Jacksonville Center
12:39PM 32.1747 -80.9583 25° Northeast 462 532 37,000  Level Jacksonville Center
12:40PM 32.2781 -80.8972 27° Northeast 462 532 37,000  Level Jacksonville Center
12:41PM 32.4022 -80.8208 27° Northeast 462 532 37,000  Level Jacksonville Center
12:42PM 32.5158 -80.7492 28° Northeast 456 525 37,000  Level Jacksonville Center
12:43PM 32.6294 -80.6775 28° Northeast 456 525 37,000  Level Jacksonville Center
12:44PM 32.7431 -80.6081 27° Northeast 456 525 37,000  Level Jacksonville Center
12:45PM 32.8544 -80.5383 28° Northeast 451 519 37,000  Level Jacksonville Center
12:46PM 32.9639 -80.4711 27° Northeast 441 507 37,000  Level Jacksonville Center
12:47PM 33.0814 -80.3961 28° Northeast 451 519 37,000  Level Jacksonville Center
12:48PM 33.1864 -80.3286 28° Northeast 442 509 37,000  Level Jacksonville Center
12:49PM 33.2917 -80.2661 26° Northeast 450 518 37,000  Level Jacksonville Center
12:50PM 33.3986 -80.1956 29° Northeast 445 512 37,000  Level Jacksonville Center
12:51PM 33.5097 -80.1250 28° Northeast 440 506 37,000  Level Jacksonville Center
12:52PM 33.6189 -80.0567 28° Northeast 440 506 37,000  Level Jacksonville Center
12:53PM 33.7278 -79.9858 28° Northeast 440 506 37,000  Level Jacksonville Center
12:54PM 33.8367 -79.9172 28° Northeast 440 506 37,000  Level Jacksonville Center
12:55PM 33.9478 -79.8433 29° Northeast 445 512 37,000  Level Jacksonville Center
12:58PM 34.1956 -79.6844 28° Northeast 436 502 37,000  Level Washington Center
12:59PM 34.3106 -79.6172 26° Northeast 442 509 37,000  Level Washington Center
01:00PM 34.4253 -79.5572 23° Northeast 447 514 37,000  Level Washington Center
01:01PM 34.5419 -79.4975 23° Northeast 447 514 37,000  Level Washington Center
01:02PM 34.6567 -79.4347 24° Northeast 447 514 37,000  Level Washington Center
01:03PM 34.7733 -79.3744 23° Northeast 447 514 37,000  Level Washington Center
01:04PM 34.8903 -79.3117 24° Northeast 447 514 37,000  Level Washington Center
01:05PM 35.0089 -79.2511 23° Northeast 447 514 37,000  Level Washington Center
01:06PM 35.1256 -79.1878 24° Northeast 447 514 37,000  Level Washington Center
01:07PM 35.2442 -79.1244 24° Northeast 447 514 37,000  Level Washington Center
01:08PM 35.3608 -79.0608 24° Northeast 455 524 37,000  Level Washington Center
01:09PM 35.4817 -78.9972 23° Northeast 455 524 37,000  Level Washington Center
01:10PM 35.5981 -78.9358 23° Northeast 455 524 37,000  Level Washington Center
01:11PM 35.7169 -78.8667 25° Northeast 455 524 37,000  Level Washington Center
01:12PM 35.8356 -78.7997 25° Northeast 460 529 37,000 -1,020 Level Washington Center
01:13PM 35.9519 -78.7353 24° Northeast 460 529 35,000 -2,400 Descending Washington Center
01:14PM 36.0642 -78.6728 24° Northeast 453 521 32,200 -2,940 Descending Washington Center
01:15PM 36.1744 -78.6078 25° Northeast 441 507 29,200 -2,580 Descending Washington Center
01:16PM 36.2867 -78.5450 24° Northeast 435 501 27,000 -1,140 Descending Washington Center
01:17PM 36.4008 -78.4847 23° Northeast 435 501 27,000  Level Washington Center
01:18PM 36.5236 -78.4119 25° Northeast 435 501 27,000  Level Washington Center
01:19PM 36.6375 -78.3486 24° Northeast 435 501 27,000  Level Washington Center
01:20PM 36.7392 -78.2875 26° Northeast 447 514 27,000 -300 Level Washington Center
01:21PM 36.8553 -78.2214 24° Northeast 447 514 26,500 -900 Descending Washington Center
01:22PM 36.9758 -78.1500 25° Northeast 455 524 25,300 -1,320 Descending Washington Center
01:23PM 37.0919 -78.0864 24° Northeast 455 524 23,900 -1,440 Descending Washington Center
01:24PM 37.2058 -78.0194 25° Northeast 449 517 22,500 -960 Descending Washington Center
01:25PM 37.3136 -77.9550 25° Northeast 437 503 22,000 -300 Descending Washington Center
01:26PM 37.4214 -77.8906 25° Northeast 425 489 22,000 -300 Level Washington Center
01:27PM 37.5289 -77.8283 25° Northeast 420 483 21,500 -1,200 Descending Washington Center
01:28PM 37.6342 -77.7658 25° Northeast 420 483 19,700 -1,800 Descending Washington Center
01:29PM 37.7375 -77.7058 25° Northeast 420 483 18,000 -1,380 Descending Washington Center
01:30PM 37.8408 -77.6456 25° Northeast 409 471 17,000 -540 Descending Washington Center
01:31PM 37.9419 -77.5850 25° Northeast 398 458 17,000 -720 Level Washington Center
01:32PM 38.0514 -77.5247 23° Northeast 393 452 15,600 -2,460 Descending Washington Center
01:33PM 38.1397 -77.4689 26° Northeast 365 420 12,100 -2,880 Descending Washington Center
01:34PM 38.2114 -77.4150 31° Northeast 333 383 9,900 -2,040 Descending Washington Center
01:35PM 38.2925 -77.4303 352° North 274 315 8,100 -1,740 Descending Washington Center
01:36PM 38.3611 -77.4453 350° North 269 310 6,500 -1,620 Descending Washington Center
01:37PM 38.4364 -77.4444 360° North 274 315 4,900 -1,260 Descending Washington Center
01:38PM 38.5072 -77.4436 North 269 310 4,000 -480 Descending Washington Center
01:39PM 38.5781 -77.4400 North 264 304 4,000 -60 Level Washington Center
01:40PM 38.6492 -77.4392 North 253 291 3,900 -240 Descending Washington Center
01:40PM 38.6833 -77.4333 North 254 292 3,700 -540 Descending Potomac TRACON
01:41PM 38.7667 -77.4333 360° North 236 272 3,200 -600 Descending Potomac TRACON
01:42PM 38.8167 -77.4333 360° North 209 241 2,500 -960 Descending Potomac TRACON
01:43PM 38.8667 -77.4333 360° North 165 190 1,300 -900 Descending Potomac TRACON
01:44PM 38.9000 -77.4333 360° North 130 150 700 -720 Descending Potomac TRACON
01:46PM 38.9474 -77.4599 North  Level Estimated
01:53PM 38.9474 -77.4599 191° South  Level Estimated
01:54PM 38.9474 -77.4599 191° South  Level Estimated
01:55PM 38.9474 -77.4599 191° South  Level Estimated
01:56PM 38.9474 -77.4599 191° South  Level Estimated